createdAt,value
2019-03-27T00:02:06.565Z,5.50
2019-03-27T00:04:35.559Z,5.70
2019-03-27T00:07:03.642Z,5.60
2019-03-27T00:09:31.733Z,5.60
2019-03-27T00:11:59.948Z,5.70
2019-03-27T00:14:27.890Z,5.60
2019-03-27T00:16:56.460Z,5.70
2019-03-27T00:19:24.763Z,5.60
2019-03-27T00:21:53.833Z,5.50
2019-03-27T00:24:22.034Z,5.60
2019-03-27T00:26:50.054Z,5.60
2019-03-27T00:29:18.988Z,5.60
2019-03-27T00:31:47.271Z,5.60
2019-03-27T00:34:15.170Z,5.50
2019-03-27T00:36:43.117Z,5.50
2019-03-27T00:39:11.283Z,5.40
2019-03-27T00:41:39.662Z,5.30
2019-03-27T00:44:07.544Z,5.20
2019-03-27T00:46:35.640Z,5.20
2019-03-27T00:49:03.708Z,5.20
2019-03-27T00:51:32.017Z,5.30
2019-03-27T00:54:00.006Z,5.50
2019-03-27T00:56:28.047Z,5.60
2019-03-27T00:58:56.096Z,5.60
2019-03-27T01:01:24.193Z,5.60
2019-03-27T01:03:52.244Z,5.60
2019-03-27T01:06:39.460Z,5.50
2019-03-27T01:09:07.563Z,5.50
2019-03-27T01:11:35.908Z,5.40
2019-03-27T01:14:03.898Z,5.40
2019-03-27T01:16:31.861Z,5.50
2019-03-27T01:19:00.174Z,5.40
2019-03-27T01:21:28.456Z,5.40
2019-03-27T01:23:56.746Z,5.40
2019-03-27T01:26:25.308Z,5.50
2019-03-27T01:28:53.830Z,5.60
2019-03-27T01:31:22.154Z,5.50
2019-03-27T01:33:50.473Z,5.60
2019-03-27T01:36:19.422Z,5.50
2019-03-27T01:38:48.029Z,5.50
2019-03-27T01:41:16.090Z,5.50
2019-03-27T01:43:44.277Z,5.60
2019-03-27T01:46:12.374Z,5.60
2019-03-27T01:48:40.329Z,5.60
2019-03-27T01:51:08.517Z,5.60
2019-03-27T01:53:36.558Z,5.50
2019-03-27T01:56:04.532Z,5.50
2019-03-27T01:58:32.914Z,5.50
2019-03-27T02:01:00.981Z,5.60
2019-03-27T02:03:29.360Z,5.40
2019-03-27T02:05:57.525Z,5.50
2019-03-27T02:08:25.902Z,5.40
2019-03-27T02:10:54.079Z,5.40
2019-03-27T02:13:22.120Z,5.50
2019-03-27T02:15:50.068Z,5.50
2019-03-27T02:18:18.395Z,5.50
2019-03-27T02:20:46.972Z,5.40
2019-03-27T02:23:14.827Z,5.40
2019-03-27T02:25:43.144Z,5.50
2019-03-27T02:28:11.091Z,5.50
2019-03-27T02:30:39.078Z,5.50
2019-03-27T02:33:07.289Z,5.50
2019-03-27T02:35:35.341Z,5.60
2019-03-27T02:38:03.390Z,5.50
2019-03-27T02:40:32.061Z,5.40
2019-03-27T02:43:00.335Z,5.40
2019-03-27T02:45:28.621Z,5.30
2019-03-27T02:47:56.970Z,5.40
2019-03-27T02:50:25.109Z,5.40
2019-03-27T02:52:53.148Z,5.30
2019-03-27T02:55:21.321Z,5.20
2019-03-27T02:57:49.898Z,5.40
2019-03-27T03:00:18.073Z,5.40
2019-03-27T03:02:46.014Z,5.30
2019-03-27T03:05:14.194Z,5.30
2019-03-27T03:07:42.131Z,5.20
2019-03-27T03:10:10.842Z,5.10
2019-03-27T03:12:38.919Z,5.00
2019-03-27T03:15:08.237Z,5.00
2019-03-27T03:17:36.530Z,4.90
2019-03-27T03:20:05.242Z,5.00
2019-03-27T03:22:33.357Z,4.90
2019-03-27T03:25:01.567Z,4.90
2019-03-27T03:27:29.690Z,4.90
2019-03-27T03:29:57.763Z,5.00
2019-03-27T03:32:26.654Z,4.90
2019-03-27T03:34:55.072Z,4.90
2019-03-27T03:37:23.836Z,5.00
2019-03-27T03:39:51.927Z,5.00
2019-03-27T03:42:20.007Z,5.00
2019-03-27T03:44:47.930Z,4.90
2019-03-27T03:47:15.834Z,4.90
2019-03-27T03:49:43.876Z,4.90
2019-03-27T03:52:12.124Z,4.90
2019-03-27T03:54:40.988Z,4.70
2019-03-27T03:57:09.575Z,4.50
2019-03-27T03:59:39.154Z,4.80
2019-03-27T04:02:07.397Z,4.90
2019-03-27T04:04:36.419Z,5.00
2019-03-27T04:07:04.607Z,4.90
2019-03-27T04:09:33.262Z,4.80
2019-03-27T04:12:01.556Z,4.50
2019-03-27T04:14:29.440Z,4.70
2019-03-27T04:16:58.023Z,4.50
2019-03-27T04:19:26.175Z,4.60
2019-03-27T04:21:54.268Z,4.50
2019-03-27T04:24:22.198Z,4.50
2019-03-27T04:26:50.233Z,4.50
2019-03-27T04:29:18.295Z,4.70
2019-03-27T04:31:46.250Z,4.70
2019-03-27T04:34:14.140Z,4.80
2019-03-27T04:36:42.187Z,4.80
2019-03-27T04:39:10.102Z,4.80
2019-03-27T04:41:38.711Z,4.60
2019-03-27T04:44:06.661Z,4.70
2019-03-27T04:46:34.863Z,4.70
2019-03-27T04:49:07.333Z,4.70
2019-03-27T04:51:32.640Z,4.80
2019-03-27T04:54:00.556Z,4.70
2019-03-27T04:56:28.868Z,4.80
2019-03-27T04:58:56.801Z,4.70
2019-03-27T05:01:24.744Z,4.70
2019-03-27T05:03:53.292Z,4.60
2019-03-27T05:06:22.407Z,4.60
2019-03-27T05:08:50.436Z,4.30
2019-03-27T05:11:18.632Z,4.20
2019-03-27T05:13:46.686Z,4.30
2019-03-27T05:16:14.884Z,4.20
2019-03-27T05:18:42.947Z,4.00
2019-03-27T05:21:11.312Z,4.10
2019-03-27T05:23:39.699Z,4.20
2019-03-27T05:26:13.177Z,4.30
2019-03-27T05:28:41.063Z,4.30
2019-03-27T05:31:09.124Z,4.20
2019-03-27T05:33:37.121Z,4.30
2019-03-27T05:36:05.115Z,4.10
2019-03-27T05:38:33.478Z,4.20
2019-03-27T05:41:01.910Z,4.20
2019-03-27T05:43:30.098Z,4.20
2019-03-27T05:45:58.712Z,4.20
2019-03-27T05:48:26.740Z,4.00
2019-03-27T05:50:55.369Z,4.00
2019-03-27T05:53:23.232Z,4.10
2019-03-27T05:55:51.925Z,4.00
2019-03-27T05:58:20.130Z,4.00
2019-03-27T06:00:49.477Z,4.00
2019-03-27T06:03:17.407Z,4.00
2019-03-27T06:05:45.805Z,3.90
2019-03-27T06:08:13.931Z,3.90
2019-03-27T06:10:42.040Z,4.00
2019-03-27T06:13:10.001Z,4.00
2019-03-27T06:15:38.321Z,4.00
2019-03-27T06:18:13.060Z,4.00
2019-03-27T06:20:36.634Z,4.00
2019-03-27T06:23:04.859Z,3.90
2019-03-27T06:25:33.065Z,4.00
2019-03-27T06:28:01.268Z,4.10
2019-03-27T06:30:29.411Z,4.10
2019-03-27T06:32:57.659Z,4.20
2019-03-27T06:35:25.728Z,4.30
2019-03-27T06:37:54.147Z,4.20
2019-03-27T06:40:22.466Z,4.20
2019-03-27T06:42:50.532Z,4.20
2019-03-27T06:45:19.751Z,4.20
2019-03-27T06:47:48.028Z,4.20
2019-03-27T06:50:15.897Z,4.30
2019-03-27T06:52:43.840Z,4.30
2019-03-27T06:55:12.304Z,4.30
2019-03-27T06:57:41.687Z,4.30
2019-03-27T07:00:11.152Z,4.40
2019-03-27T07:02:39.885Z,4.40
2019-03-27T07:05:07.956Z,4.40
2019-03-27T07:07:36.536Z,4.40
2019-03-27T07:10:04.898Z,4.40
2019-03-27T07:12:33.302Z,4.50
2019-03-27T07:15:02.087Z,4.50
2019-03-27T07:17:30.107Z,4.60
2019-03-27T07:19:58.109Z,4.60
2019-03-27T07:22:26.292Z,4.60
2019-03-27T07:24:54.288Z,4.60
2019-03-27T07:27:22.577Z,4.60
2019-03-27T07:29:50.732Z,4.60
2019-03-27T07:32:19.101Z,4.70
2019-03-27T07:34:47.111Z,4.80
2019-03-27T07:37:15.170Z,4.80
2019-03-27T07:39:43.616Z,4.80
2019-03-27T07:42:12.018Z,4.90
2019-03-27T07:44:40.122Z,5.00
2019-03-27T07:47:08.748Z,5.00
2019-03-27T07:49:36.675Z,5.10
2019-03-27T07:52:04.911Z,5.20
2019-03-27T07:54:32.918Z,5.30
2019-03-27T07:57:01.505Z,5.30
2019-03-27T07:59:30.095Z,5.40
2019-03-27T08:01:58.088Z,5.40
2019-03-27T08:04:26.821Z,5.50
2019-03-27T08:06:54.840Z,5.70
2019-03-27T08:09:25.558Z,6.00
2019-03-27T08:11:54.346Z,5.90
2019-03-27T08:14:22.275Z,6.00
2019-03-27T08:16:50.512Z,6.00
2019-03-27T08:19:19.616Z,6.10
2019-03-27T08:21:47.474Z,6.10
2019-03-27T08:24:16.261Z,6.20
2019-03-27T08:26:44.258Z,6.20
2019-03-27T08:29:13.688Z,6.40
2019-03-27T08:31:42.030Z,6.40
2019-03-27T08:34:11.568Z,6.50
2019-03-27T08:36:39.451Z,6.60
2019-03-27T08:39:07.762Z,6.70
2019-03-27T08:41:36.451Z,6.70
2019-03-27T08:44:04.658Z,6.80
2019-03-27T08:46:32.800Z,6.90
2019-03-27T08:49:01.156Z,6.90
2019-03-27T08:51:29.408Z,7.00
2019-03-27T08:53:57.727Z,7.10
2019-03-27T08:56:25.702Z,7.10
2019-03-27T08:58:53.732Z,7.20
2019-03-27T09:01:22.188Z,7.30
2019-03-27T09:03:50.424Z,7.30
2019-03-27T09:06:18.431Z,7.30
2019-03-27T09:08:46.712Z,7.30
2019-03-27T09:11:15.461Z,7.30
2019-03-27T09:13:43.928Z,7.30
2019-03-27T09:16:11.931Z,7.40
2019-03-27T09:18:40.053Z,7.40
2019-03-27T09:21:08.161Z,7.50
2019-03-27T09:23:36.881Z,7.60
2019-03-27T09:26:04.920Z,7.60
2019-03-27T09:28:33.272Z,7.80
2019-03-27T09:31:01.264Z,7.90
2019-03-27T09:33:29.672Z,7.90
2019-03-27T09:35:57.842Z,8.00
2019-03-27T09:38:26.144Z,8.10
2019-03-27T09:40:54.076Z,8.10
2019-03-27T09:43:22.158Z,8.10
2019-03-27T09:45:50.192Z,8.20
2019-03-27T09:48:18.814Z,8.30
2019-03-27T09:50:46.839Z,8.30
2019-03-27T09:53:15.165Z,8.40
2019-03-27T09:55:43.540Z,8.40
2019-03-27T09:58:11.438Z,8.50
2019-03-27T10:01:07.879Z,8.60
2019-03-27T10:03:36.492Z,8.70
2019-03-27T10:06:04.673Z,8.80
2019-03-27T10:08:32.740Z,8.80
2019-03-27T10:11:00.680Z,8.90
2019-03-27T10:13:28.752Z,8.90
2019-03-27T10:15:56.682Z,9.00
2019-03-27T10:18:25.334Z,9.10
2019-03-27T10:20:54.371Z,9.10
2019-03-27T10:23:22.371Z,9.20
2019-03-27T10:25:50.882Z,9.30
2019-03-27T10:28:19.899Z,9.30
2019-03-27T10:30:48.290Z,9.40
2019-03-27T10:33:16.329Z,9.50
2019-03-27T10:35:44.249Z,9.50
2019-03-27T10:38:12.782Z,9.70
2019-03-27T10:40:41.143Z,9.70
2019-03-27T10:43:09.848Z,9.70
2019-03-27T10:45:37.867Z,9.80
2019-03-27T10:48:07.035Z,10.00
2019-03-27T10:50:35.329Z,9.90
2019-03-27T10:53:03.566Z,9.90
2019-03-27T10:55:34.532Z,9.90
2019-03-27T10:58:02.056Z,10.20
2019-03-27T11:00:30.331Z,10.70
2019-03-27T11:02:58.781Z,10.70
2019-03-27T11:05:27.823Z,10.70
2019-03-27T11:07:55.959Z,10.60
2019-03-27T11:10:23.893Z,10.50
2019-03-27T11:12:51.836Z,10.50
2019-03-27T11:15:20.163Z,10.50
2019-03-27T11:17:48.677Z,10.50
2019-03-27T11:20:29.957Z,10.40
2019-03-27T11:22:47.415Z,10.50
2019-03-27T11:25:15.360Z,10.40
2019-03-27T11:27:44.027Z,10.40
2019-03-27T11:30:12.114Z,10.40
2019-03-27T11:32:40.632Z,10.50
2019-03-27T11:35:09.376Z,10.50
2019-03-27T11:37:37.359Z,10.60
2019-03-27T11:40:05.440Z,10.60
2019-03-27T11:42:33.617Z,10.60
2019-03-27T11:45:02.015Z,10.70
2019-03-27T11:47:30.353Z,10.80
2019-03-27T11:49:58.386Z,10.80
2019-03-27T11:52:29.444Z,10.90
2019-03-27T11:54:56.448Z,10.90
2019-03-27T11:57:24.895Z,11.20
2019-03-27T11:59:54.393Z,11.20
2019-03-27T12:02:22.641Z,11.00
2019-03-27T12:04:50.572Z,11.00
2019-03-27T12:07:19.104Z,11.00
2019-03-27T12:09:47.488Z,11.00
2019-03-27T12:12:15.734Z,11.00
2019-03-27T12:14:44.105Z,10.90
2019-03-27T12:17:12.152Z,10.90
2019-03-27T12:19:40.199Z,10.90
2019-03-27T12:22:08.224Z,11.00
2019-03-27T12:24:36.314Z,11.00
2019-03-27T12:27:04.186Z,11.10
2019-03-27T12:29:32.388Z,11.20
2019-03-27T12:32:00.465Z,11.20
2019-03-27T12:34:29.276Z,11.30
2019-03-27T12:36:57.764Z,11.50
2019-03-27T12:39:25.639Z,11.50
2019-03-27T12:41:53.646Z,11.50
2019-03-27T12:44:22.247Z,11.50
2019-03-27T12:46:51.860Z,11.40
2019-03-27T12:49:20.004Z,11.40
2019-03-27T12:51:48.064Z,11.40
2019-03-27T12:54:16.380Z,11.40
2019-03-27T12:56:44.414Z,11.40
2019-03-27T12:59:13.023Z,11.60
2019-03-27T13:01:41.077Z,11.50
2019-03-27T13:04:09.264Z,11.50
2019-03-27T13:06:37.458Z,11.40
2019-03-27T13:09:06.212Z,11.40
2019-03-27T13:11:36.720Z,11.40
2019-03-27T13:14:04.808Z,11.30
2019-03-27T13:16:32.672Z,11.30
2019-03-27T13:19:01.075Z,11.20
2019-03-27T13:21:29.387Z,11.30
2019-03-27T13:23:57.297Z,11.30
2019-03-27T13:26:25.702Z,11.20
2019-03-27T13:28:53.834Z,11.20
2019-03-27T13:31:22.432Z,11.20
2019-03-27T13:33:50.704Z,11.20
2019-03-27T13:36:18.881Z,11.20
2019-03-27T13:38:47.172Z,11.30
2019-03-27T13:41:15.840Z,11.20
2019-03-27T13:43:43.778Z,11.20
2019-03-27T13:46:11.704Z,11.20
2019-03-27T13:48:41.039Z,11.20
2019-03-27T13:51:09.448Z,11.20
2019-03-27T13:53:37.844Z,11.20
2019-03-27T13:56:06.194Z,11.30
2019-03-27T13:58:34.396Z,11.30
2019-03-27T14:01:02.430Z,11.30
2019-03-27T14:03:31.596Z,11.30
2019-03-27T14:06:00.043Z,11.30
2019-03-27T14:08:28.060Z,11.20
2019-03-27T14:10:57.253Z,11.20
2019-03-27T14:13:25.484Z,11.20
2019-03-27T14:15:53.443Z,11.20
2019-03-27T14:18:21.523Z,11.20
2019-03-27T14:20:50.312Z,11.20
2019-03-27T14:23:18.606Z,11.20
2019-03-27T14:25:46.731Z,11.30
2019-03-27T14:28:14.941Z,11.20
2019-03-27T14:30:52.480Z,11.30
2019-03-27T14:33:20.635Z,11.40
2019-03-27T14:35:49.792Z,11.30
2019-03-27T14:38:19.155Z,11.40
2019-03-27T14:40:47.095Z,11.40
2019-03-27T14:43:15.269Z,11.40
2019-03-27T14:45:43.935Z,11.60
2019-03-27T14:48:11.832Z,11.80
2019-03-27T14:50:39.834Z,12.00
2019-03-27T14:53:08.273Z,12.00
2019-03-27T14:55:36.443Z,12.10
2019-03-27T14:58:04.440Z,12.00
2019-03-27T15:00:32.393Z,11.90
2019-03-27T15:03:00.689Z,11.90
2019-03-27T15:05:28.688Z,11.80
2019-03-27T15:07:56.811Z,11.70
2019-03-27T15:10:24.865Z,11.70
2019-03-27T15:12:52.979Z,11.60
2019-03-27T15:15:21.057Z,11.70
2019-03-27T15:17:49.230Z,11.70
2019-03-27T15:20:17.156Z,11.80
2019-03-27T15:22:45.184Z,11.80
2019-03-27T15:25:13.372Z,11.70
2019-03-27T15:27:41.615Z,11.70
2019-03-27T15:30:13.013Z,11.70
2019-03-27T15:32:41.119Z,11.60
2019-03-27T15:35:09.099Z,11.60
2019-03-27T15:37:37.385Z,11.60
2019-03-27T15:40:05.976Z,11.60
2019-03-27T15:42:36.126Z,11.50
2019-03-27T15:45:16.472Z,11.50
2019-03-27T15:47:44.392Z,11.50
2019-03-27T15:50:12.286Z,11.50
2019-03-27T15:52:40.656Z,11.50
2019-03-27T15:55:08.803Z,11.50
2019-03-27T15:57:36.761Z,11.50
2019-03-27T16:00:05.566Z,11.50
2019-03-27T16:02:33.780Z,11.50
2019-03-27T16:05:02.140Z,11.50
2019-03-27T16:07:31.441Z,11.40
2019-03-27T16:09:59.719Z,11.40
2019-03-27T16:12:28.176Z,11.30
2019-03-27T16:14:56.527Z,11.40
2019-03-27T16:17:24.444Z,11.40
2019-03-27T16:19:53.388Z,11.30
2019-03-27T16:22:21.601Z,11.30
2019-03-27T16:24:49.514Z,11.30
2019-03-27T16:27:17.424Z,11.30
2019-03-27T16:29:45.514Z,11.30
2019-03-27T16:32:13.566Z,11.30
2019-03-27T16:34:41.560Z,11.30
2019-03-27T16:37:09.941Z,11.30
2019-03-27T16:39:37.999Z,11.30
2019-03-27T16:42:05.886Z,11.20
2019-03-27T16:44:34.189Z,11.20
2019-03-27T16:47:02.460Z,11.20
2019-03-27T16:49:30.457Z,11.20
2019-03-27T16:51:58.512Z,11.20
2019-03-27T16:54:26.528Z,11.20
2019-03-27T16:56:54.962Z,11.10
2019-03-27T16:59:23.279Z,11.10
2019-03-27T17:01:51.324Z,11.10
2019-03-27T17:04:20.337Z,11.10
2019-03-27T17:06:48.715Z,11.00
2019-03-27T17:09:16.968Z,11.00
2019-03-27T17:11:45.327Z,11.00
2019-03-27T17:14:13.213Z,11.00
2019-03-27T17:16:41.234Z,11.00
2019-03-27T17:19:09.223Z,11.00
2019-03-27T17:21:37.150Z,11.00
2019-03-27T17:24:05.509Z,10.90
2019-03-27T17:26:33.482Z,11.00
2019-03-27T17:29:01.545Z,11.00
2019-03-27T17:31:29.657Z,11.00
2019-03-27T17:33:57.669Z,11.00
2019-03-27T17:36:26.004Z,11.10
2019-03-27T17:38:54.996Z,11.10
2019-03-27T17:41:23.516Z,11.10
2019-03-27T17:43:51.855Z,11.10
2019-03-27T17:46:19.735Z,11.00
2019-03-27T17:48:47.728Z,11.00
2019-03-27T17:51:15.590Z,11.00
2019-03-27T17:53:43.633Z,11.00
2019-03-27T17:56:11.692Z,11.00
2019-03-27T17:58:39.641Z,11.10
2019-03-27T18:01:09.024Z,11.10
2019-03-27T18:03:37.163Z,11.10
2019-03-27T18:06:05.307Z,11.00
2019-03-27T18:08:33.352Z,11.00
2019-03-27T18:11:03.031Z,10.90
2019-03-27T18:13:31.520Z,10.90
2019-03-27T18:16:00.120Z,10.80
2019-03-27T18:18:28.176Z,10.80
2019-03-27T18:20:56.155Z,10.80
2019-03-27T18:23:25.937Z,10.80
2019-03-27T18:25:53.811Z,10.80
2019-03-27T18:28:21.923Z,10.80
2019-03-27T18:30:50.574Z,10.90
2019-03-27T18:33:18.583Z,10.90
2019-03-27T18:35:46.920Z,10.80
2019-03-27T18:38:16.119Z,10.70
2019-03-27T18:40:43.998Z,10.80
2019-03-27T18:43:12.275Z,10.60
2019-03-27T18:45:40.301Z,10.60
2019-03-27T18:48:10.192Z,10.70
2019-03-27T18:50:39.451Z,10.70
2019-03-27T18:53:07.496Z,10.70
2019-03-27T18:55:35.433Z,10.80
2019-03-27T18:58:03.341Z,10.80
2019-03-27T19:00:31.611Z,10.80
2019-03-27T19:02:59.615Z,10.70
2019-03-27T19:05:27.503Z,10.70
2019-03-27T19:07:55.570Z,10.70
2019-03-27T19:10:23.716Z,10.60
2019-03-27T19:12:52.077Z,10.50
2019-03-27T19:15:20.263Z,10.60
2019-03-27T19:17:48.159Z,10.60
2019-03-27T19:20:16.400Z,10.50
2019-03-27T19:22:44.674Z,10.60
2019-03-27T19:25:12.996Z,10.50
2019-03-27T19:27:41.079Z,10.40
2019-03-27T19:30:09.707Z,10.50
2019-03-27T19:32:38.085Z,10.30
2019-03-27T19:35:05.939Z,10.10
2019-03-27T19:37:34.038Z,10.20
2019-03-27T19:40:02.039Z,10.20
2019-03-27T19:42:30.679Z,10.30
2019-03-27T19:44:58.786Z,10.20
2019-03-27T19:47:27.234Z,10.30
2019-03-27T19:49:55.128Z,10.30
2019-03-27T19:52:23.019Z,10.20
2019-03-27T19:54:50.967Z,10.30
2019-03-27T19:57:18.922Z,10.30
2019-03-27T19:59:46.884Z,10.00
2019-03-27T20:02:14.933Z,9.80
2019-03-27T20:04:43.608Z,9.60
2019-03-27T20:07:11.538Z,9.60
2019-03-27T20:09:39.947Z,9.70
2019-03-27T20:12:07.936Z,9.70
2019-03-27T20:14:36.115Z,9.80
2019-03-27T20:17:04.163Z,9.90
2019-03-27T20:19:32.298Z,9.80
2019-03-27T20:22:00.178Z,9.80
2019-03-27T20:24:40.445Z,9.80
2019-03-27T20:26:59.135Z,9.70
2019-03-27T20:29:27.194Z,9.70
2019-03-27T20:32:14.440Z,9.70
2019-03-27T20:34:42.604Z,9.80
2019-03-27T20:37:10.956Z,9.90
2019-03-27T20:39:42.528Z,9.90
2019-03-27T20:42:09.654Z,9.90
2019-03-27T20:44:38.163Z,9.90
2019-03-27T20:47:06.519Z,9.80
2019-03-27T20:49:35.736Z,9.50
2019-03-27T20:52:03.766Z,9.30
2019-03-27T20:54:33.384Z,9.30
2019-03-27T20:57:01.861Z,8.90
2019-03-27T20:59:30.037Z,8.60
2019-03-27T21:01:58.508Z,8.70
2019-03-27T21:04:26.703Z,8.40
2019-03-27T21:06:55.105Z,8.70
2019-03-27T21:09:23.100Z,8.90
2019-03-27T21:11:51.333Z,8.90
2019-03-27T21:14:20.232Z,9.00
2019-03-27T21:16:48.302Z,9.00
2019-03-27T21:19:17.821Z,9.00
2019-03-27T21:21:46.170Z,9.00
2019-03-27T21:24:14.499Z,9.00
2019-03-27T21:26:42.622Z,9.00
2019-03-27T21:29:11.032Z,9.00
2019-03-27T21:31:39.105Z,9.00
2019-03-27T21:34:07.283Z,8.80
2019-03-27T21:36:35.705Z,8.80
2019-03-27T21:39:05.821Z,8.60
2019-03-27T21:41:34.637Z,8.60
2019-03-27T21:44:02.847Z,8.60
2019-03-27T21:46:32.544Z,8.60
2019-03-27T21:49:00.761Z,8.60
2019-03-27T21:51:29.220Z,8.30
2019-03-27T21:53:57.267Z,8.20
2019-03-27T21:56:25.319Z,8.40
2019-03-27T21:58:53.362Z,8.20
2019-03-27T22:01:21.603Z,7.70
2019-03-27T22:03:50.371Z,7.60
2019-03-27T22:06:19.977Z,7.60
2019-03-27T22:08:48.209Z,7.50
2019-03-27T22:11:16.523Z,7.30
2019-03-27T22:13:44.608Z,7.30
2019-03-27T22:16:12.692Z,7.20
2019-03-27T22:18:40.727Z,7.10
2019-03-27T22:21:08.801Z,7.10
2019-03-27T22:23:37.192Z,7.40
2019-03-27T22:26:05.552Z,7.50
2019-03-27T22:28:33.460Z,7.60
2019-03-27T22:31:01.518Z,7.30
2019-03-27T22:33:30.646Z,7.50
2019-03-27T22:35:59.176Z,7.50
2019-03-27T22:38:27.116Z,7.50
2019-03-27T22:40:55.690Z,7.40
2019-03-27T22:43:23.749Z,7.50
2019-03-27T22:45:52.194Z,7.50
2019-03-27T22:48:20.364Z,7.40
2019-03-27T22:50:48.369Z,7.40
2019-03-27T22:53:16.428Z,7.40
2019-03-27T22:55:50.364Z,7.50
2019-03-27T22:58:15.821Z,6.90
2019-03-27T23:00:50.609Z,6.60
2019-03-27T23:03:19.229Z,6.50
2019-03-27T23:05:47.459Z,6.50
2019-03-27T23:08:15.755Z,6.70
2019-03-27T23:10:43.882Z,6.80
2019-03-27T23:13:14.223Z,6.80
2019-03-27T23:15:42.437Z,6.80
2019-03-27T23:18:10.442Z,6.90
2019-03-27T23:20:38.390Z,6.90
2019-03-27T23:23:06.352Z,6.90
2019-03-27T23:25:34.256Z,6.90
2019-03-27T23:28:02.797Z,6.90
2019-03-27T23:30:32.046Z,6.90
2019-03-27T23:33:00.496Z,6.90
2019-03-27T23:35:29.080Z,6.90
2019-03-27T23:37:57.256Z,6.80
2019-03-27T23:40:25.164Z,6.80
2019-03-27T23:42:53.548Z,6.60
2019-03-27T23:45:22.086Z,6.70
2019-03-27T23:47:50.105Z,6.70
2019-03-27T23:50:18.007Z,6.80
2019-03-27T23:52:45.876Z,6.70
2019-03-27T23:55:13.813Z,6.70
2019-03-27T23:58:01.019Z,6.70
